Terminal Aerodrome Forecast
Issued by NWS

Home | Current Version | Previous Version | Text Only | Print | Product List | Glossary On
Versions: 1 2 3 4 5 6 7 8 9 10 11 12 13 14 15 16 17 18 19 20 21
439
FTUS44 KEWX 201610 AAA
TAFSSF
TAF AMD
KSSF 201610Z 2016/2112 10003KT P6SM SKC
     FM201800 17005KT P6SM SKC
     FM211100 20004KT P6SM SCT015 SCT250=

USA.gov is the U.S. government's official web portal to all federal, state and local government web resources and services.